sensor_id;sensor_type;location;lat;lon;timestamp;temperature;humidity
3705;DHT22;1868;48.918;9.438;2022-10-17T00:01:12;13.20;97.40
3705;DHT22;1868;48.918;9.438;2022-10-17T00:03:40;13.20;97.40
3705;DHT22;1868;48.918;9.438;2022-10-17T00:06:10;13.10;97.40
3705;DHT22;1868;48.918;9.438;2022-10-17T00:08:41;13.10;97.40
3705;DHT22;1868;48.918;9.438;2022-10-17T00:11:13;13.00;97.40
3705;DHT22;1868;48.918;9.438;2022-10-17T00:13:45;13.00;97.40
3705;DHT22;1868;48.918;9.438;2022-10-17T00:16:14;13.00;97.40
3705;DHT22;1868;48.918;9.438;2022-10-17T00:18:45;12.90;97.40
3705;DHT22;1868;48.918;9.438;2022-10-17T00:21:16;12.90;97.40
3705;DHT22;1868;48.918;9.438;2022-10-17T00:23:46;12.90;97.40
3705;DHT22;1868;48.918;9.438;2022-10-17T00:26:15;12.90;97.40
3705;DHT22;1868;48.918;9.438;2022-10-17T00:28:46;12.90;97.40
3705;DHT22;1868;48.918;9.438;2022-10-17T00:31:16;12.90;97.40
3705;DHT22;1868;48.918;9.438;2022-10-17T00:33:46;12.80;97.40
3705;DHT22;1868;48.918;9.438;2022-10-17T00:36:16;12.80;97.40
3705;DHT22;1868;48.918;9.438;2022-10-17T00:38:48;12.80;97.40
3705;DHT22;1868;48.918;9.438;2022-10-17T00:41:20;12.70;97.40
3705;DHT22;1868;48.918;9.438;2022-10-17T00:43:57;12.70;97.40
3705;DHT22;1868;48.918;9.438;2022-10-17T00:46:28;12.70;97.40
3705;DHT22;1868;48.918;9.438;2022-10-17T00:49:00;12.70;97.40
3705;DHT22;1868;48.918;9.438;2022-10-17T00:51:33;12.70;97.40
3705;DHT22;1868;48.918;9.438;2022-10-17T00:54:04;12.60;97.40
3705;DHT22;1868;48.918;9.438;2022-10-17T00:56:33;12.60;97.40
3705;DHT22;1868;48.918;9.438;2022-10-17T00:59:02;12.60;97.40
3705;DHT22;1868;48.918;9.438;2022-10-17T01:01:32;12.60;97.40
3705;DHT22;1868;48.918;9.438;2022-10-17T01:04:00;12.60;97.40
3705;DHT22;1868;48.918;9.438;2022-10-17T01:06:28;12.60;97.40
3705;DHT22;1868;48.918;9.438;2022-10-17T01:08:57;12.60;97.40
3705;DHT22;1868;48.918;9.438;2022-10-17T01:11:32;12.60;97.40
3705;DHT22;1868;48.918;9.438;2022-10-17T01:14:10;12.60;97.40
3705;DHT22;1868;48.918;9.438;2022-10-17T01:16:47;12.60;97.40
3705;DHT22;1868;48.918;9.438;2022-10-17T01:19:39;12.60;97.40
3705;DHT22;1868;48.918;9.438;2022-10-17T01:22:23;12.60;97.40
3705;DHT22;1868;48.918;9.438;2022-10-17T01:25:07;12.50;97.40
3705;DHT22;1868;48.918;9.438;2022-10-17T01:27:54;12.50;97.40
3705;DHT22;1868;48.918;9.438;2022-10-17T01:30:55;12.50;97.40
3705;DHT22;1868;48.918;9.438;2022-10-17T01:33:31;12.50;97.40
3705;DHT22;1868;48.918;9.438;2022-10-17T01:36:09;12.40;97.40
3705;DHT22;1868;48.918;9.438;2022-10-17T01:38:44;12.30;97.40
3705;DHT22;1868;48.918;9.438;2022-10-17T01:41:24;12.30;97.40
3705;DHT22;1868;48.918;9.438;2022-10-17T01:44:01;12.20;97.40
3705;DHT22;1868;48.918;9.438;2022-10-17T01:46:35;12.20;97.40
3705;DHT22;1868;48.918;9.438;2022-10-17T01:49:06;12.20;97.40
3705;DHT22;1868;48.918;9.438;2022-10-17T01:51:39;12.20;97.40
3705;DHT22;1868;48.918;9.438;2022-10-17T01:54:12;12.20;97.40
3705;DHT22;1868;48.918;9.438;2022-10-17T01:56:43;12.10;97.40
3705;DHT22;1868;48.918;9.438;2022-10-17T01:59:15;12.10;97.40
3705;DHT22;1868;48.918;9.438;2022-10-17T02:01:48;12.10;97.40
3705;DHT22;1868;48.918;9.438;2022-10-17T02:04:19;12.10;97.40
3705;DHT22;1868;48.918;9.438;2022-10-17T02:06:47;12.10;97.40
3705;DHT22;1868;48.918;9.438;2022-10-17T02:09:17;12.10;97.40
3705;DHT22;1868;48.918;9.438;2022-10-17T02:11:59;12.00;97.40
3705;DHT22;1868;48.918;9.438;2022-10-17T02:14:42;12.00;97.40
3705;DHT22;1868;48.918;9.438;2022-10-17T02:17:25;12.00;97.40
3705;DHT22;1868;48.918;9.438;2022-10-17T02:20:05;12.00;97.40
3705;DHT22;1868;48.918;9.438;2022-10-17T02:22:43;12.00;97.40
3705;DHT22;1868;48.918;9.438;2022-10-17T02:25:22;11.90;97.40
3705;DHT22;1868;48.918;9.438;2022-10-17T02:28:00;11.90;97.40
3705;DHT22;1868;48.918;9.438;2022-10-17T02:30:38;11.90;97.40
3705;DHT22;1868;48.918;9.438;2022-10-17T02:33:12;11.80;97.40
3705;DHT22;1868;48.918;9.438;2022-10-17T02:35:46;11.80;97.40
3705;DHT22;1868;48.918;9.438;2022-10-17T02:38:18;11.80;97.40
3705;DHT22;1868;48.918;9.438;2022-10-17T02:40:49;11.80;97.40
3705;DHT22;1868;48.918;9.438;2022-10-17T02:43:19;11.70;97.40
3705;DHT22;1868;48.918;9.438;2022-10-17T02:45:48;11.70;97.40
3705;DHT22;1868;48.918;9.438;2022-10-17T02:48:23;11.70;97.40
3705;DHT22;1868;48.918;9.438;2022-10-17T02:51:01;11.70;97.40
3705;DHT22;1868;48.918;9.438;2022-10-17T02:53:38;11.70;97.40
3705;DHT22;1868;48.918;9.438;2022-10-17T02:56:15;11.70;97.40
3705;DHT22;1868;48.918;9.438;2022-10-17T02:58:48;11.60;97.40
3705;DHT22;1868;48.918;9.438;2022-10-17T03:01:18;11.60;97.40
3705;DHT22;1868;48.918;9.438;2022-10-17T03:03:49;11.60;97.40
3705;DHT22;1868;48.918;9.438;2022-10-17T03:06:17;11.60;97.40
3705;DHT22;1868;48.918;9.438;2022-10-17T03:08:45;11.60;97.40
3705;DHT22;1868;48.918;9.438;2022-10-17T03:11:13;11.50;97.40
3705;DHT22;1868;48.918;9.438;2022-10-17T03:13:41;11.50;97.40
3705;DHT22;1868;48.918;9.438;2022-10-17T03:16:09;11.50;97.40
3705;DHT22;1868;48.918;9.438;2022-10-17T03:18:38;11.50;97.40
3705;DHT22;1868;48.918;9.438;2022-10-17T03:21:08;11.50;97.40
3705;DHT22;1868;48.918;9.438;2022-10-17T03:23:36;11.50;97.40
3705;DHT22;1868;48.918;9.438;2022-10-17T03:26:06;11.50;97.40
3705;DHT22;1868;48.918;9.438;2022-10-17T03:28:35;11.40;97.40
3705;DHT22;1868;48.918;9.438;2022-10-17T03:31:07;11.50;97.40
3705;DHT22;1868;48.918;9.438;2022-10-17T03:33:37;11.40;97.40
3705;DHT22;1868;48.918;9.438;2022-10-17T03:36:09;11.40;97.40
3705;DHT22;1868;48.918;9.438;2022-10-17T03:38:40;11.50;97.40
3705;DHT22;1868;48.918;9.438;2022-10-17T03:41:08;11.50;97.40
3705;DHT22;1868;48.918;9.438;2022-10-17T03:43:38;11.50;97.40
3705;DHT22;1868;48.918;9.438;2022-10-17T03:46:07;11.50;97.40
3705;DHT22;1868;48.918;9.438;2022-10-17T03:48:36;11.40;97.40
3705;DHT22;1868;48.918;9.438;2022-10-17T03:51:08;11.40;97.40
3705;DHT22;1868;48.918;9.438;2022-10-17T03:53:42;11.40;97.40
3705;DHT22;1868;48.918;9.438;2022-10-17T03:56:13;11.30;97.40
3705;DHT22;1868;48.918;9.438;2022-10-17T03:58:44;11.30;97.40
3705;DHT22;1868;48.918;9.438;2022-10-17T04:01:15;11.30;97.40
3705;DHT22;1868;48.918;9.438;2022-10-17T04:03:49;11.30;97.40
3705;DHT22;1868;48.918;9.438;2022-10-17T04:06:19;11.20;97.40
3705;DHT22;1868;48.918;9.438;2022-10-17T04:08:48;11.20;97.40
3705;DHT22;1868;48.918;9.438;2022-10-17T04:11:32;11.20;97.40
3705;DHT22;1868;48.918;9.438;2022-10-17T04:14:01;11.10;97.40
3705;DHT22;1868;48.918;9.438;2022-10-17T04:16:30;11.10;97.40
3705;DHT22;1868;48.918;9.438;2022-10-17T04:19:02;11.10;97.40
3705;DHT22;1868;48.918;9.438;2022-10-17T04:21:37;11.00;97.40
3705;DHT22;1868;48.918;9.438;2022-10-17T04:24:09;11.00;97.40
3705;DHT22;1868;48.918;9.438;2022-10-17T04:26:49;11.00;97.40
3705;DHT22;1868;48.918;9.438;2022-10-17T04:29:19;11.00;97.40
3705;DHT22;1868;48.918;9.438;2022-10-17T04:31:50;11.00;97.40
3705;DHT22;1868;48.918;9.438;2022-10-17T04:34:27;11.00;97.40
3705;DHT22;1868;48.918;9.438;2022-10-17T04:36:57;10.90;97.40
3705;DHT22;1868;48.918;9.438;2022-10-17T04:39:26;10.90;97.40
3705;DHT22;1868;48.918;9.438;2022-10-17T04:41:54;10.90;97.40
3705;DHT22;1868;48.918;9.438;2022-10-17T04:44:22;10.90;97.40
3705;DHT22;1868;48.918;9.438;2022-10-17T04:46:51;10.90;97.40
3705;DHT22;1868;48.918;9.438;2022-10-17T04:49:21;10.90;97.40
3705;DHT22;1868;48.918;9.438;2022-10-17T04:51:53;10.90;97.40
3705;DHT22;1868;48.918;9.438;2022-10-17T04:54:35;10.90;97.40
3705;DHT22;1868;48.918;9.438;2022-10-17T04:57:07;10.80;97.40
3705;DHT22;1868;48.918;9.438;2022-10-17T04:59:37;10.80;97.40
3705;DHT22;1868;48.918;9.438;2022-10-17T05:02:24;10.80;97.40
3705;DHT22;1868;48.918;9.438;2022-10-17T05:04:54;10.80;97.40
3705;DHT22;1868;48.918;9.438;2022-10-17T05:07:23;10.80;97.40
3705;DHT22;1868;48.918;9.438;2022-10-17T05:09:58;10.80;97.40
3705;DHT22;1868;48.918;9.438;2022-10-17T05:12:28;10.80;97.40
3705;DHT22;1868;48.918;9.438;2022-10-17T05:14:57;10.80;97.40
3705;DHT22;1868;48.918;9.438;2022-10-17T05:17:27;10.80;97.40
3705;DHT22;1868;48.918;9.438;2022-10-17T05:19:55;10.70;97.40
3705;DHT22;1868;48.918;9.438;2022-10-17T05:22:23;10.70;97.40
3705;DHT22;1868;48.918;9.438;2022-10-17T05:24:51;10.80;97.40
3705;DHT22;1868;48.918;9.438;2022-10-17T05:27:21;10.70;97.40
3705;DHT22;1868;48.918;9.438;2022-10-17T05:29:49;10.70;97.40
3705;DHT22;1868;48.918;9.438;2022-10-17T05:32:23;10.80;97.40
3705;DHT22;1868;48.918;9.438;2022-10-17T05:34:51;10.80;97.40
3705;DHT22;1868;48.918;9.438;2022-10-17T05:37:22;10.80;97.40
3705;DHT22;1868;48.918;9.438;2022-10-17T05:39:53;10.80;97.40
3705;DHT22;1868;48.918;9.438;2022-10-17T05:42:22;10.90;97.40
3705;DHT22;1868;48.918;9.438;2022-10-17T05:44:51;10.90;97.40
3705;DHT22;1868;48.918;9.438;2022-10-17T05:47:20;10.90;97.40
3705;DHT22;1868;48.918;9.438;2022-10-17T05:49:48;10.90;97.40
3705;DHT22;1868;48.918;9.438;2022-10-17T05:52:24;10.90;97.40
3705;DHT22;1868;48.918;9.438;2022-10-17T05:55:12;10.90;97.40
3705;DHT22;1868;48.918;9.438;2022-10-17T05:57:41;11.00;97.40
3705;DHT22;1868;48.918;9.438;2022-10-17T06:00:14;11.00;97.40
3705;DHT22;1868;48.918;9.438;2022-10-17T06:02:49;11.00;97.40
3705;DHT22;1868;48.918;9.438;2022-10-17T06:05:20;11.00;97.40
3705;DHT22;1868;48.918;9.438;2022-10-17T06:07:49;11.00;97.40
3705;DHT22;1868;48.918;9.438;2022-10-17T06:10:19;11.10;97.40
3705;DHT22;1868;48.918;9.438;2022-10-17T06:12:49;11.10;97.40
3705;DHT22;1868;48.918;9.438;2022-10-17T06:15:17;11.20;97.40
3705;DHT22;1868;48.918;9.438;2022-10-17T06:17:52;11.30;97.40
3705;DHT22;1868;48.918;9.438;2022-10-17T06:20:20;11.30;97.40
3705;DHT22;1868;48.918;9.438;2022-10-17T06:22:48;11.40;97.40
3705;DHT22;1868;48.918;9.438;2022-10-17T06:25:26;11.40;97.40
3705;DHT22;1868;48.918;9.438;2022-10-17T06:27:56;11.50;97.40
3705;DHT22;1868;48.918;9.438;2022-10-17T06:30:25;11.60;97.40
3705;DHT22;1868;48.918;9.438;2022-10-17T06:32:53;11.70;97.40
3705;DHT22;1868;48.918;9.438;2022-10-17T06:35:22;11.80;97.40
3705;DHT22;1868;48.918;9.438;2022-10-17T06:37:50;12.10;97.40
3705;DHT22;1868;48.918;9.438;2022-10-17T06:40:20;12.40;97.40
3705;DHT22;1868;48.918;9.438;2022-10-17T06:42:48;12.50;97.40
3705;DHT22;1868;48.918;9.438;2022-10-17T06:45:38;12.70;97.40
3705;DHT22;1868;48.918;9.438;2022-10-17T06:48:14;13.20;97.40
3705;DHT22;1868;48.918;9.438;2022-10-17T06:50:50;13.50;97.40
3705;DHT22;1868;48.918;9.438;2022-10-17T06:53:26;14.00;97.40
3705;DHT22;1868;48.918;9.438;2022-10-17T06:56:24;14.40;97.40
3705;DHT22;1868;48.918;9.438;2022-10-17T06:59:08;15.00;97.40
3705;DHT22;1868;48.918;9.438;2022-10-17T07:01:41;15.70;97.40
3705;DHT22;1868;48.918;9.438;2022-10-17T07:04:13;16.50;97.40
3705;DHT22;1868;48.918;9.438;2022-10-17T07:06:42;17.30;97.40
3705;DHT22;1868;48.918;9.438;2022-10-17T07:09:15;17.90;97.40
3705;DHT22;1868;48.918;9.438;2022-10-17T07:11:43;18.50;97.40
3705;DHT22;1868;48.918;9.438;2022-10-17T07:14:16;19.30;97.40
3705;DHT22;1868;48.918;9.438;2022-10-17T07:16:47;19.90;97.40
3705;DHT22;1868;48.918;9.438;2022-10-17T07:19:21;20.50;97.40
3705;DHT22;1868;48.918;9.438;2022-10-17T07:21:50;21.00;97.40
3705;DHT22;1868;48.918;9.438;2022-10-17T07:24:18;21.50;97.40
3705;DHT22;1868;48.918;9.438;2022-10-17T07:26:55;22.10;97.40
3705;DHT22;1868;48.918;9.438;2022-10-17T07:29:24;22.70;97.40
3705;DHT22;1868;48.918;9.438;2022-10-17T07:32:01;23.00;94.40
3705;DHT22;1868;48.918;9.438;2022-10-17T07:34:34;23.00;94.20
3705;DHT22;1868;48.918;9.438;2022-10-17T07:37:05;23.30;95.10
3705;DHT22;1868;48.918;9.438;2022-10-17T07:39:37;23.90;95.70
3705;DHT22;1868;48.918;9.438;2022-10-17T07:42:06;24.40;92.30
3705;DHT22;1868;48.918;9.438;2022-10-17T07:44:34;24.70;91.90
3705;DHT22;1868;48.918;9.438;2022-10-17T07:47:04;24.70;90.10
3705;DHT22;1868;48.918;9.438;2022-10-17T07:49:35;24.90;90.40
3705;DHT22;1868;48.918;9.438;2022-10-17T07:52:08;25.50;92.60
3705;DHT22;1868;48.918;9.438;2022-10-17T07:54:37;25.40;86.20
3705;DHT22;1868;48.918;9.438;2022-10-17T07:57:05;25.00;86.90
3705;DHT22;1868;48.918;9.438;2022-10-17T07:59:36;24.90;90.10
3705;DHT22;1868;48.918;9.438;2022-10-17T08:02:07;25.90;92.30
3705;DHT22;1868;48.918;9.438;2022-10-17T08:04:36;26.90;89.70
3705;DHT22;1868;48.918;9.438;2022-10-17T08:07:04;26.80;79.30
3705;DHT22;1868;48.918;9.438;2022-10-17T08:09:47;27.30;88.20
3705;DHT22;1868;48.918;9.438;2022-10-17T08:12:16;28.40;81.00
3705;DHT22;1868;48.918;9.438;2022-10-17T08:14:44;29.30;81.40
3705;DHT22;1868;48.918;9.438;2022-10-17T08:17:15;29.00;70.70
3705;DHT22;1868;48.918;9.438;2022-10-17T08:19:43;28.30;72.60
3705;DHT22;1868;48.918;9.438;2022-10-17T08:22:11;28.80;76.90
3705;DHT22;1868;48.918;9.438;2022-10-17T08:24:39;28.70;72.00
3705;DHT22;1868;48.918;9.438;2022-10-17T08:27:08;28.90;71.70
3705;DHT22;1868;48.918;9.438;2022-10-17T08:29:39;29.00;79.10
3705;DHT22;1868;48.918;9.438;2022-10-17T08:32:07;30.00;78.40
3705;DHT22;1868;48.918;9.438;2022-10-17T08:34:37;29.70;68.10
3705;DHT22;1868;48.918;9.438;2022-10-17T08:37:05;29.10;70.50
3705;DHT22;1868;48.918;9.438;2022-10-17T08:39:34;29.00;71.70
3705;DHT22;1868;48.918;9.438;2022-10-17T08:42:10;29.40;75.40
3705;DHT22;1868;48.918;9.438;2022-10-17T08:44:56;30.20;72.20
3705;DHT22;1868;48.918;9.438;2022-10-17T08:47:35;30.50;69.20
3705;DHT22;1868;48.918;9.438;2022-10-17T08:50:12;31.40;70.90
3705;DHT22;1868;48.918;9.438;2022-10-17T08:52:45;32.20;69.60
3705;DHT22;1868;48.918;9.438;2022-10-17T08:55:19;32.80;66.60
3705;DHT22;1868;48.918;9.438;2022-10-17T08:57:53;33.50;62.50
3705;DHT22;1868;48.918;9.438;2022-10-17T09:00:22;34.30;62.50
3705;DHT22;1868;48.918;9.438;2022-10-17T09:03:01;34.60;56.90
3705;DHT22;1868;48.918;9.438;2022-10-17T09:05:43;34.70;55.80
3705;DHT22;1868;48.918;9.438;2022-10-17T09:08:33;34.00;58.10
3705;DHT22;1868;48.918;9.438;2022-10-17T09:11:14;34.40;56.40
3705;DHT22;1868;48.918;9.438;2022-10-17T09:14:01;34.70;58.10
3705;DHT22;1868;48.918;9.438;2022-10-17T09:16:53;34.60;56.90
3705;DHT22;1868;48.918;9.438;2022-10-17T09:19:30;34.80;54.90
3705;DHT22;1868;48.918;9.438;2022-10-17T09:22:05;35.20;52.00
3705;DHT22;1868;48.918;9.438;2022-10-17T09:24:40;35.70;54.60
3705;DHT22;1868;48.918;9.438;2022-10-17T09:27:19;35.70;50.00
3705;DHT22;1868;48.918;9.438;2022-10-17T09:29:54;35.80;53.20
3705;DHT22;1868;48.918;9.438;2022-10-17T09:32:42;36.10;54.90
3705;DHT22;1868;48.918;9.438;2022-10-17T09:35:14;36.60;52.30
3705;DHT22;1868;48.918;9.438;2022-10-17T09:37:44;36.60;52.60
3705;DHT22;1868;48.918;9.438;2022-10-17T09:40:20;36.60;50.30
3705;DHT22;1868;48.918;9.438;2022-10-17T09:42:51;36.20;50.80
3705;DHT22;1868;48.918;9.438;2022-10-17T09:45:21;35.90;52.50
3705;DHT22;1868;48.918;9.438;2022-10-17T09:47:58;35.80;53.20
3705;DHT22;1868;48.918;9.438;2022-10-17T09:50:30;35.70;52.00
3705;DHT22;1868;48.918;9.438;2022-10-17T09:53:05;35.30;52.90
3705;DHT22;1868;48.918;9.438;2022-10-17T09:55:41;35.30;53.40
3705;DHT22;1868;48.918;9.438;2022-10-17T09:58:10;35.30;53.50
3705;DHT22;1868;48.918;9.438;2022-10-17T10:00:40;34.90;54.20
3705;DHT22;1868;48.918;9.438;2022-10-17T10:03:20;35.10;53.90
3705;DHT22;1868;48.918;9.438;2022-10-17T10:05:59;35.30;51.70
3705;DHT22;1868;48.918;9.438;2022-10-17T10:08:31;35.50;52.30
3705;DHT22;1868;48.918;9.438;2022-10-17T10:11:04;35.60;52.20
3705;DHT22;1868;48.918;9.438;2022-10-17T10:13:35;35.60;51.70
3705;DHT22;1868;48.918;9.438;2022-10-17T10:16:16;35.20;51.30
3705;DHT22;1868;48.918;9.438;2022-10-17T10:18:46;35.20;52.00
3705;DHT22;1868;48.918;9.438;2022-10-17T10:21:18;35.60;53.20
3705;DHT22;1868;48.918;9.438;2022-10-17T10:26:45;36.10;52.00
3705;DHT22;1868;48.918;9.438;2022-10-17T10:29:25;36.10;47.00
3705;DHT22;1868;48.918;9.438;2022-10-17T10:32:06;36.20;47.90
3705;DHT22;1868;48.918;9.438;2022-10-17T10:34:35;36.20;48.20
3705;DHT22;1868;48.918;9.438;2022-10-17T10:37:16;36.50;49.00
3705;DHT22;1868;48.918;9.438;2022-10-17T10:39:48;36.70;47.80
3705;DHT22;1868;48.918;9.438;2022-10-17T10:42:22;36.60;46.50
3705;DHT22;1868;48.918;9.438;2022-10-17T10:44:57;36.60;47.00
3705;DHT22;1868;48.918;9.438;2022-10-17T10:47:29;36.80;44.10
3705;DHT22;1868;48.918;9.438;2022-10-17T10:50:27;37.10;45.80
3705;DHT22;1868;48.918;9.438;2022-10-17T10:53:18;37.60;44.30
3705;DHT22;1868;48.918;9.438;2022-10-17T10:56:05;37.50;41.40
3705;DHT22;1868;48.918;9.438;2022-10-17T10:58:47;37.30;39.50
3705;DHT22;1868;48.918;9.438;2022-10-17T11:01:24;37.30;41.20
3705;DHT22;1868;48.918;9.438;2022-10-17T11:04:14;36.40;39.20
3705;DHT22;1868;48.918;9.438;2022-10-17T11:06:54;36.80;42.10
3705;DHT22;1868;48.918;9.438;2022-10-17T11:09:44;36.10;39.70
3705;DHT22;1868;48.918;9.438;2022-10-17T11:12:19;35.90;41.20
3705;DHT22;1868;48.918;9.438;2022-10-17T11:14:52;35.00;41.70
3705;DHT22;1868;48.918;9.438;2022-10-17T11:17:29;35.10;43.80
3705;DHT22;1868;48.918;9.438;2022-10-17T11:20:09;35.30;42.90
3705;DHT22;1868;48.918;9.438;2022-10-17T11:22:43;35.90;44.60
3705;DHT22;1868;48.918;9.438;2022-10-17T11:25:21;36.40;43.20
3705;DHT22;1868;48.918;9.438;2022-10-17T11:27:58;37.30;40.30
3705;DHT22;1868;48.918;9.438;2022-10-17T11:30:39;37.90;38.20
3705;DHT22;1868;48.918;9.438;2022-10-17T11:33:17;37.70;36.60
3705;DHT22;1868;48.918;9.438;2022-10-17T11:35:51;37.90;38.50
3705;DHT22;1868;48.918;9.438;2022-10-17T11:38:38;38.40;37.60
3705;DHT22;1868;48.918;9.438;2022-10-17T11:41:12;38.40;37.60
3705;DHT22;1868;48.918;9.438;2022-10-17T11:43:46;37.80;33.40
3705;DHT22;1868;48.918;9.438;2022-10-17T11:46:21;37.60;36.80
3705;DHT22;1868;48.918;9.438;2022-10-17T11:48:59;38.30;38.80
3705;DHT22;1868;48.918;9.438;2022-10-17T11:51:37;38.90;36.20
3705;DHT22;1868;48.918;9.438;2022-10-17T11:54:30;38.80;32.80
3705;DHT22;1868;48.918;9.438;2022-10-17T11:57:09;38.70;35.10
3705;DHT22;1868;48.918;9.438;2022-10-17T11:59:56;39.00;33.90
3705;DHT22;1868;48.918;9.438;2022-10-17T12:02:45;38.00;32.40
3705;DHT22;1868;48.918;9.438;2022-10-17T12:05:22;38.10;34.70
3705;DHT22;1868;48.918;9.438;2022-10-17T12:07:57;38.50;36.60
3705;DHT22;1868;48.918;9.438;2022-10-17T12:10:42;38.60;32.40
3705;DHT22;1868;48.918;9.438;2022-10-17T12:13:51;38.50;33.30
3705;DHT22;1868;48.918;9.438;2022-10-17T12:16:47;38.40;31.30
3705;DHT22;1868;48.918;9.438;2022-10-17T12:19:29;38.80;34.50
3705;DHT22;1868;48.918;9.438;2022-10-17T12:22:04;38.70;32.20
3705;DHT22;1868;48.918;9.438;2022-10-17T12:24:39;38.30;30.90
3705;DHT22;1868;48.918;9.438;2022-10-17T12:27:31;38.00;32.20
3705;DHT22;1868;48.918;9.438;2022-10-17T12:30:13;37.60;33.70
3705;DHT22;1868;48.918;9.438;2022-10-17T12:32:57;37.90;32.50
3705;DHT22;1868;48.918;9.438;2022-10-17T12:35:36;38.00;33.00
3705;DHT22;1868;48.918;9.438;2022-10-17T12:38:20;38.10;33.70
3705;DHT22;1868;48.918;9.438;2022-10-17T12:40:51;37.70;32.70
3705;DHT22;1868;48.918;9.438;2022-10-17T12:43:56;37.40;36.20
3705;DHT22;1868;48.918;9.438;2022-10-17T12:46:46;37.50;35.40
3705;DHT22;1868;48.918;9.438;2022-10-17T12:49:21;37.50;36.50
3705;DHT22;1868;48.918;9.438;2022-10-17T12:55:23;37.80;37.30
3705;DHT22;1868;48.918;9.438;2022-10-17T12:57:55;37.80;36.80
3705;DHT22;1868;48.918;9.438;2022-10-17T13:00:32;37.90;38.80
3705;DHT22;1868;48.918;9.438;2022-10-17T13:03:05;38.30;38.20
3705;DHT22;1868;48.918;9.438;2022-10-17T13:05:42;38.60;36.20
3705;DHT22;1868;48.918;9.438;2022-10-17T13:08:18;38.60;35.30
3705;DHT22;1868;48.918;9.438;2022-10-17T13:10:50;38.40;36.00
3705;DHT22;1868;48.918;9.438;2022-10-17T13:13:22;38.20;37.70
3705;DHT22;1868;48.918;9.438;2022-10-17T13:15:54;37.80;36.50
3705;DHT22;1868;48.918;9.438;2022-10-17T13:18:24;37.20;38.00
3705;DHT22;1868;48.918;9.438;2022-10-17T13:20:55;36.90;38.00
3705;DHT22;1868;48.918;9.438;2022-10-17T13:23:30;36.80;38.60
3705;DHT22;1868;48.918;9.438;2022-10-17T13:26:05;36.60;39.50
3705;DHT22;1868;48.918;9.438;2022-10-17T13:28:38;36.50;40.00
3705;DHT22;1868;48.918;9.438;2022-10-17T13:31:12;36.40;40.50
3705;DHT22;1868;48.918;9.438;2022-10-17T13:33:55;36.50;40.80
3705;DHT22;1868;48.918;9.438;2022-10-17T13:36:25;36.10;40.30
3705;DHT22;1868;48.918;9.438;2022-10-17T13:38:56;35.80;40.90
3705;DHT22;1868;48.918;9.438;2022-10-17T13:41:27;35.80;42.00
3705;DHT22;1868;48.918;9.438;2022-10-17T13:44:06;35.40;41.10
3705;DHT22;1868;48.918;9.438;2022-10-17T13:46:38;35.20;42.40
3705;DHT22;1868;48.918;9.438;2022-10-17T13:49:14;35.30;42.00
3705;DHT22;1868;48.918;9.438;2022-10-17T13:51:49;35.00;42.30
3705;DHT22;1868;48.918;9.438;2022-10-17T13:54:33;35.10;44.00
3705;DHT22;1868;48.918;9.438;2022-10-17T13:57:04;34.90;44.30
3705;DHT22;1868;48.918;9.438;2022-10-17T13:59:37;34.80;44.40
3705;DHT22;1868;48.918;9.438;2022-10-17T14:02:13;34.60;45.50
3705;DHT22;1868;48.918;9.438;2022-10-17T14:04:42;34.60;45.90
3705;DHT22;1868;48.918;9.438;2022-10-17T14:07:34;34.40;46.80
3705;DHT22;1868;48.918;9.438;2022-10-17T14:10:29;34.30;45.80
3705;DHT22;1868;48.918;9.438;2022-10-17T14:12:59;34.30;46.80
3705;DHT22;1868;48.918;9.438;2022-10-17T14:15:30;34.10;46.80
3705;DHT22;1868;48.918;9.438;2022-10-17T14:18:04;34.10;47.20
3705;DHT22;1868;48.918;9.438;2022-10-17T14:20:35;34.10;47.80
3705;DHT22;1868;48.918;9.438;2022-10-17T14:23:35;33.80;47.90
3705;DHT22;1868;48.918;9.438;2022-10-17T14:26:10;33.40;47.20
3705;DHT22;1868;48.918;9.438;2022-10-17T14:28:41;33.20;47.90
3705;DHT22;1868;48.918;9.438;2022-10-17T14:31:17;33.20;48.20
3705;DHT22;1868;48.918;9.438;2022-10-17T14:33:48;33.20;48.80
3705;DHT22;1868;48.918;9.438;2022-10-17T14:36:18;33.20;48.10
3705;DHT22;1868;48.918;9.438;2022-10-17T14:38:49;33.00;48.40
3705;DHT22;1868;48.918;9.438;2022-10-17T14:41:23;32.80;49.70
3705;DHT22;1868;48.918;9.438;2022-10-17T14:44:16;32.60;49.30
3705;DHT22;1868;48.918;9.438;2022-10-17T14:46:49;32.10;50.30
3705;DHT22;1868;48.918;9.438;2022-10-17T14:49:26;32.10;51.40
3705;DHT22;1868;48.918;9.438;2022-10-17T14:52:23;32.20;51.90
3705;DHT22;1868;48.918;9.438;2022-10-17T14:54:53;32.10;51.70
3705;DHT22;1868;48.918;9.438;2022-10-17T14:57:26;32.10;51.70
3705;DHT22;1868;48.918;9.438;2022-10-17T15:00:01;32.00;51.70
3705;DHT22;1868;48.918;9.438;2022-10-17T15:02:29;31.80;52.60
3705;DHT22;1868;48.918;9.438;2022-10-17T15:04:58;31.80;53.40
3705;DHT22;1868;48.918;9.438;2022-10-17T15:07:26;31.60;55.40
3705;DHT22;1868;48.918;9.438;2022-10-17T15:09:55;31.20;55.80
3705;DHT22;1868;48.918;9.438;2022-10-17T15:12:24;30.80;56.40
3705;DHT22;1868;48.918;9.438;2022-10-17T15:14:53;30.50;57.50
3705;DHT22;1868;48.918;9.438;2022-10-17T15:17:23;30.50;56.40
3705;DHT22;1868;48.918;9.438;2022-10-17T15:19:53;30.20;57.70
3705;DHT22;1868;48.918;9.438;2022-10-17T15:22:21;30.10;57.40
3705;DHT22;1868;48.918;9.438;2022-10-17T15:24:49;29.90;58.30
3705;DHT22;1868;48.918;9.438;2022-10-17T15:27:19;29.60;59.30
3705;DHT22;1868;48.918;9.438;2022-10-17T15:29:50;29.10;60.50
3705;DHT22;1868;48.918;9.438;2022-10-17T15:32:18;28.70;60.90
3705;DHT22;1868;48.918;9.438;2022-10-17T15:34:46;28.20;67.60
3705;DHT22;1868;48.918;9.438;2022-10-17T15:37:17;27.70;69.80
3705;DHT22;1868;48.918;9.438;2022-10-17T15:39:49;27.30;70.20
3705;DHT22;1868;48.918;9.438;2022-10-17T15:42:21;27.10;68.90
3705;DHT22;1868;48.918;9.438;2022-10-17T15:44:51;26.80;70.70
3705;DHT22;1868;48.918;9.438;2022-10-17T15:47:23;26.60;70.90
3705;DHT22;1868;48.918;9.438;2022-10-17T15:49:53;26.30;71.80
3705;DHT22;1868;48.918;9.438;2022-10-17T15:52:22;26.20;72.40
3705;DHT22;1868;48.918;9.438;2022-10-17T15:54:51;26.00;75.40
3705;DHT22;1868;48.918;9.438;2022-10-17T15:57:22;25.70;81.70
3705;DHT22;1868;48.918;9.438;2022-10-17T15:59:54;25.40;81.00
3705;DHT22;1868;48.918;9.438;2022-10-17T16:02:24;25.10;82.10
3705;DHT22;1868;48.918;9.438;2022-10-17T16:04:52;24.90;80.80
3705;DHT22;1868;48.918;9.438;2022-10-17T16:07:21;24.70;81.40
3705;DHT22;1868;48.918;9.438;2022-10-17T16:09:49;24.50;86.00
3705;DHT22;1868;48.918;9.438;2022-10-17T16:12:25;24.30;90.50
3705;DHT22;1868;48.918;9.438;2022-10-17T16:14:58;23.90;91.50
3705;DHT22;1868;48.918;9.438;2022-10-17T16:17:27;23.70;91.30
3705;DHT22;1868;48.918;9.438;2022-10-17T16:19:55;23.50;92.40
3705;DHT22;1868;48.918;9.438;2022-10-17T16:22:26;23.30;92.30
3705;DHT22;1868;48.918;9.438;2022-10-17T16:24:58;23.10;92.70
3705;DHT22;1868;48.918;9.438;2022-10-17T16:27:34;23.00;92.90
3705;DHT22;1868;48.918;9.438;2022-10-17T16:30:05;22.80;95.00
3705;DHT22;1868;48.918;9.438;2022-10-17T16:32:34;22.50;97.40
3705;DHT22;1868;48.918;9.438;2022-10-17T16:35:03;22.30;97.40
3705;DHT22;1868;48.918;9.438;2022-10-17T16:37:32;22.10;97.40
3705;DHT22;1868;48.918;9.438;2022-10-17T16:40:01;21.90;97.40
3705;DHT22;1868;48.918;9.438;2022-10-17T16:42:30;21.80;97.40
3705;DHT22;1868;48.918;9.438;2022-10-17T16:44:58;21.60;97.40
3705;DHT22;1868;48.918;9.438;2022-10-17T16:47:28;21.40;97.40
3705;DHT22;1868;48.918;9.438;2022-10-17T16:49:56;21.20;97.40
3705;DHT22;1868;48.918;9.438;2022-10-17T16:52:24;21.00;97.40